sensor_id;sensor_type;location;lat;lon;timestamp;pressure;altitude;pressure_sealevel;temperature;humidity
70468;BME280;57934;51.532;7.684;2023-06-22T00:02:00;100572.84;;;22.70;nan
70468;BME280;57934;51.532;7.684;2023-06-22T00:04:26;100566.13;;;22.62;nan
70468;BME280;57934;51.532;7.684;2023-06-22T00:06:53;100573.06;;;22.53;nan
70468;BME280;57934;51.532;7.684;2023-06-22T00:09:19;100562.34;;;22.58;nan
70468;BME280;57934;51.532;7.684;2023-06-22T00:11:45;100563.38;;;22.36;nan
70468;BME280;57934;51.532;7.684;2023-06-22T00:14:11;100559.34;;;22.44;nan
70468;BME280;57934;51.532;7.684;2023-06-22T00:16:37;100562.53;;;22.26;nan
70468;BME280;57934;51.532;7.684;2023-06-22T00:19:03;100570.56;;;22.21;nan
70468;BME280;57934;51.532;7.684;2023-06-22T00:21:29;100572.78;;;22.34;nan
70468;BME280;57934;51.532;7.684;2023-06-22T00:23:56;100571.44;;;22.36;nan
70468;BME280;57934;51.532;7.684;2023-06-22T00:26:23;100569.81;;;22.30;nan
70468;BME280;57934;51.532;7.684;2023-06-22T00:28:49;100571.69;;;22.30;nan
70468;BME280;57934;51.532;7.684;2023-06-22T00:31:15;100566.78;;;22.17;nan
70468;BME280;57934;51.532;7.684;2023-06-22T00:33:41;100561.69;;;22.15;nan
70468;BME280;57934;51.532;7.684;2023-06-22T00:36:07;100562.25;;;22.22;nan
70468;BME280;57934;51.532;7.684;2023-06-22T00:38:38;100555.00;;;22.23;nan
70468;BME280;57934;51.532;7.684;2023-06-22T00:41:08;100564.88;;;22.12;nan
70468;BME280;57934;51.532;7.684;2023-06-22T00:43:35;100565.13;;;22.05;nan
70468;BME280;57934;51.532;7.684;2023-06-22T00:46:02;100562.66;;;21.99;nan
70468;BME280;57934;51.532;7.684;2023-06-22T00:48:29;100566.16;;;21.99;nan
70468;BME280;57934;51.532;7.684;2023-06-22T00:50:55;100569.13;;;22.03;nan
70468;BME280;57934;51.532;7.684;2023-06-22T00:53:23;100565.13;;;22.05;nan
70468;BME280;57934;51.532;7.684;2023-06-22T00:55:49;100573.97;;;22.06;nan
70468;BME280;57934;51.532;7.684;2023-06-22T00:58:18;100561.59;;;22.00;nan
70468;BME280;57934;51.532;7.684;2023-06-22T01:00:48;100558.63;;;21.96;nan
70468;BME280;57934;51.532;7.684;2023-06-22T01:03:14;100566.16;;;21.94;nan
70468;BME280;57934;51.532;7.684;2023-06-22T01:05:42;100565.31;;;21.93;nan
70468;BME280;57934;51.532;7.684;2023-06-22T01:13:49;100565.13;;;22.05;nan
70468;BME280;57934;51.532;7.684;2023-06-22T01:16:24;100566.69;;;21.96;nan
70468;BME280;57934;51.532;7.684;2023-06-22T01:18:55;100571.47;;;21.89;nan
70468;BME280;57934;51.532;7.684;2023-06-22T01:21:23;100568.84;;;21.94;nan
70468;BME280;57934;51.532;7.684;2023-06-22T01:29:17;100557.25;;;21.88;nan
70468;BME280;57934;51.532;7.684;2023-06-22T01:31:45;100560.97;;;21.82;nan
70468;BME280;57934;51.532;7.684;2023-06-22T01:34:13;100556.69;;;21.81;nan
70468;BME280;57934;51.532;7.684;2023-06-22T01:36:41;100564.13;;;21.69;nan
70468;BME280;57934;51.532;7.684;2023-06-22T01:39:08;100560.69;;;21.74;nan
70468;BME280;57934;51.532;7.684;2023-06-22T01:41:37;100557.44;;;21.72;nan
70468;BME280;57934;51.532;7.684;2023-06-22T01:44:07;100545.88;;;21.66;nan
70468;BME280;57934;51.532;7.684;2023-06-22T01:46:36;100547.47;;;21.67;nan
70468;BME280;57934;51.532;7.684;2023-06-22T01:49:03;100544.53;;;21.68;nan
70468;BME280;57934;51.532;7.684;2023-06-22T01:51:30;100543.47;;;21.70;nan
70468;BME280;57934;51.532;7.684;2023-06-22T01:53:59;100553.44;;;21.74;nan
70468;BME280;57934;51.532;7.684;2023-06-22T01:56:26;100548.06;;;21.79;nan
70468;BME280;57934;51.532;7.684;2023-06-22T01:59:16;100557.16;;;21.68;nan
70468;BME280;57934;51.532;7.684;2023-06-22T02:01:51;100562.31;;;21.80;nan
70468;BME280;57934;51.532;7.684;2023-06-22T02:04:22;100553.63;;;21.62;nan
70468;BME280;57934;51.532;7.684;2023-06-22T02:06:56;100556.56;;;21.56;nan
70468;BME280;57934;51.532;7.684;2023-06-22T02:09:25;100561.41;;;21.59;nan
70468;BME280;57934;51.532;7.684;2023-06-22T02:11:56;100557.88;;;21.58;nan
70468;BME280;57934;51.532;7.684;2023-06-22T02:14:23;100556.28;;;21.57;nan
70468;BME280;57934;51.532;7.684;2023-06-22T02:16:53;100561.94;;;21.61;nan
70468;BME280;57934;51.532;7.684;2023-06-22T02:19:23;100560.00;;;21.51;nan
70468;BME280;57934;51.532;7.684;2023-06-22T02:21:50;100555.19;;;21.53;nan
70468;BME280;57934;51.532;7.684;2023-06-22T02:24:16;100563.97;;;21.43;nan
70468;BME280;57934;51.532;7.684;2023-06-22T02:26:43;100565.22;;;21.31;nan
70468;BME280;57934;51.532;7.684;2023-06-22T02:29:11;100562.03;;;21.34;nan
70468;BME280;57934;51.532;7.684;2023-06-22T02:31:37;100549.00;;;21.15;nan
70468;BME280;57934;51.532;7.684;2023-06-22T02:34:03;100548.47;;;21.18;nan
70468;BME280;57934;51.532;7.684;2023-06-22T02:36:29;100547.16;;;21.21;nan
70468;BME280;57934;51.532;7.684;2023-06-22T02:38:56;100544.19;;;21.17;nan
70468;BME280;57934;51.532;7.684;2023-06-22T02:41:24;100544.09;;;21.07;nan
70468;BME280;57934;51.532;7.684;2023-06-22T02:43:50;100537.88;;;21.02;nan
70468;BME280;57934;51.532;7.684;2023-06-22T02:46:19;100534.91;;;20.98;nan
70468;BME280;57934;51.532;7.684;2023-06-22T02:48:45;100529.31;;;21.05;nan
70468;BME280;57934;51.532;7.684;2023-06-22T02:51:11;100537.94;;;21.07;nan
70468;BME280;57934;51.532;7.684;2023-06-22T02:53:37;100531.22;;;21.09;nan
70468;BME280;57934;51.532;7.684;2023-06-22T02:56:04;100525.13;;;21.14;nan
70468;BME280;57934;51.532;7.684;2023-06-22T02:58:36;100527.44;;;21.05;nan
70468;BME280;57934;51.532;7.684;2023-06-22T03:01:06;100525.28;;;21.02;nan
70468;BME280;57934;51.532;7.684;2023-06-22T03:03:34;100523.97;;;21.05;nan
70468;BME280;57934;51.532;7.684;2023-06-22T03:06:00;100520.97;;;20.96;nan
70468;BME280;57934;51.532;7.684;2023-06-22T03:08:29;100527.38;;;20.95;nan
70468;BME280;57934;51.532;7.684;2023-06-22T03:10:56;100527.13;;;20.96;nan
70468;BME280;57934;51.532;7.684;2023-06-22T03:13:22;100523.94;;;21.00;nan
70468;BME280;57934;51.532;7.684;2023-06-22T03:15:48;100522.00;;;20.95;nan
70468;BME280;57934;51.532;7.684;2023-06-22T03:18:14;100527.03;;;20.86;nan
70468;BME280;57934;51.532;7.684;2023-06-22T03:20:41;100523.56;;;20.86;nan
70468;BME280;57934;51.532;7.684;2023-06-22T03:23:08;100514.34;;;20.77;nan
70468;BME280;57934;51.532;7.684;2023-06-22T03:25:35;100513.03;;;20.79;nan
70468;BME280;57934;51.532;7.684;2023-06-22T03:28:01;100508.22;;;20.81;nan
70468;BME280;57934;51.532;7.684;2023-06-22T03:30:27;100513.13;;;20.89;nan
70468;BME280;57934;51.532;7.684;2023-06-22T03:32:53;100513.34;;;20.83;nan
70468;BME280;57934;51.532;7.684;2023-06-22T03:35:20;100518.19;;;20.86;nan
70468;BME280;57934;51.532;7.684;2023-06-22T03:37:47;100511.97;;;20.80;nan
70468;BME280;57934;51.532;7.684;2023-06-22T03:40:13;100518.44;;;20.84;nan
70468;BME280;57934;51.532;7.684;2023-06-22T03:42:40;100518.19;;;20.86;nan
70468;BME280;57934;51.532;7.684;2023-06-22T03:45:06;100520.91;;;20.91;nan
70468;BME280;57934;51.532;7.684;2023-06-22T03:47:32;100512.34;;;20.94;nan
70468;BME280;57934;51.532;7.684;2023-06-22T03:49:59;100518.53;;;20.94;nan
70468;BME280;57934;51.532;7.684;2023-06-22T03:52:25;100517.69;;;20.89;nan
70468;BME280;57934;51.532;7.684;2023-06-22T03:54:51;100523.38;;;20.97;nan
70468;BME280;57934;51.532;7.684;2023-06-22T03:57:17;100529.31;;;21.05;nan
70468;BME280;57934;51.532;7.684;2023-06-22T03:59:43;100526.66;;;21.05;nan
70468;BME280;57934;51.532;7.684;2023-06-22T04:02:09;100525.06;;;21.09;nan
70468;BME280;57934;51.532;7.684;2023-06-22T04:04:35;100521.34;;;21.10;nan
70468;BME280;57934;51.532;7.684;2023-06-22T04:07:01;100515.34;;;20.97;nan
70468;BME280;57934;51.532;7.684;2023-06-22T04:09:27;100513.72;;;20.96;nan
70468;BME280;57934;51.532;7.684;2023-06-22T04:11:53;100510.25;;;21.01;nan
70468;BME280;57934;51.532;7.684;2023-06-22T04:14:19;100494.75;;;21.03;nan
70468;BME280;57934;51.532;7.684;2023-06-22T04:16:45;100492.91;;;20.77;nan
70468;BME280;57934;51.532;7.684;2023-06-22T04:19:11;100501.81;;;20.82;nan
70468;BME280;57934;51.532;7.684;2023-06-22T04:21:43;100498.44;;;20.97;nan
70468;BME280;57934;51.532;7.684;2023-06-22T04:24:11;100497.78;;;21.17;nan
70468;BME280;57934;51.532;7.684;2023-06-22T04:26:37;100495.09;;;21.17;nan
70468;BME280;57934;51.532;7.684;2023-06-22T04:29:04;100502.31;;;21.16;nan
70468;BME280;57934;51.532;7.684;2023-06-22T04:31:32;100501.88;;;21.30;nan
70468;BME280;57934;51.532;7.684;2023-06-22T04:34:03;100500.56;;;21.32;nan
70468;BME280;57934;51.532;7.684;2023-06-22T04:36:41;100506.59;;;21.12;nan
70468;BME280;57934;51.532;7.684;2023-06-22T04:39:09;100510.84;;;21.08;nan
70468;BME280;57934;51.532;7.684;2023-06-22T04:41:39;100507.16;;;21.19;nan
70468;BME280;57934;51.532;7.684;2023-06-22T04:44:13;100500.00;;;21.30;nan
70468;BME280;57934;51.532;7.684;2023-06-22T04:46:39;100495.03;;;21.07;nan
70468;BME280;57934;51.532;7.684;2023-06-22T04:49:09;100502.41;;;20.89;nan
70468;BME280;57934;51.532;7.684;2023-06-22T04:51:40;100506.44;;;21.29;nan
70468;BME280;57934;51.532;7.684;2023-06-22T04:54:08;100503.06;;;21.44;nan
70468;BME280;57934;51.532;7.684;2023-06-22T04:56:35;100514.31;;;21.41;nan
70468;BME280;57934;51.532;7.684;2023-06-22T04:59:02;100510.38;;;21.54;nan
70468;BME280;57934;51.532;7.684;2023-06-22T05:01:29;100496.94;;;21.54;nan
70468;BME280;57934;51.532;7.684;2023-06-22T05:03:58;100504.84;;;21.33;nan
70468;BME280;57934;51.532;7.684;2023-06-22T05:06:27;100507.09;;;21.47;nan
70468;BME280;57934;51.532;7.684;2023-06-22T05:08:54;100514.63;;;21.50;nan
70468;BME280;57934;51.532;7.684;2023-06-22T05:11:26;100524.00;;;21.47;nan
70468;BME280;57934;51.532;7.684;2023-06-22T05:13:53;100536.56;;;21.04;nan
70468;BME280;57934;51.532;7.684;2023-06-22T05:16:20;100540.03;;;20.67;nan
70468;BME280;57934;51.532;7.684;2023-06-22T05:18:54;100547.97;;;20.57;nan
70468;BME280;57934;51.532;7.684;2023-06-22T05:21:22;100541.06;;;20.66;nan
70468;BME280;57934;51.532;7.684;2023-06-22T05:23:49;100537.34;;;20.45;nan
70468;BME280;57934;51.532;7.684;2023-06-22T05:26:15;100528.34;;;20.08;nan
70468;BME280;57934;51.532;7.684;2023-06-22T05:28:41;100530.50;;;19.84;nan
70468;BME280;57934;51.532;7.684;2023-06-22T05:31:08;100531.97;;;19.74;nan
70468;BME280;57934;51.532;7.684;2023-06-22T05:33:34;100540.75;;;19.53;nan
70468;BME280;57934;51.532;7.684;2023-06-22T05:36:00;100533.97;;;19.28;nan
70468;BME280;57934;51.532;7.684;2023-06-22T05:38:26;100533.91;;;19.06;nan
70468;BME280;57934;51.532;7.684;2023-06-22T05:40:53;100526.94;;;18.89;nan
70468;BME280;57934;51.532;7.684;2023-06-22T05:43:19;100523.84;;;18.80;nan
70468;BME280;57934;51.532;7.684;2023-06-22T05:45:45;100526.44;;;18.75;nan
70468;BME280;57934;51.532;7.684;2023-06-22T05:48:11;100521.84;;;18.58;nan
70468;BME280;57934;51.532;7.684;2023-06-22T05:50:37;100516.69;;;18.69;nan
70468;BME280;57934;51.532;7.684;2023-06-22T05:53:03;100514.09;;;18.57;nan
70468;BME280;57934;51.532;7.684;2023-06-22T05:55:29;100519.75;;;18.60;nan
70468;BME280;57934;51.532;7.684;2023-06-22T05:57:55;100523.59;;;18.53;nan
70468;BME280;57934;51.532;7.684;2023-06-22T06:00:21;100517.06;;;18.44;nan
70468;BME280;57934;51.532;7.684;2023-06-22T06:02:48;100521.38;;;18.62;nan
70468;BME280;57934;51.532;7.684;2023-06-22T06:05:15;100515.56;;;18.65;nan
70468;BME280;57934;51.532;7.684;2023-06-22T06:07:41;100519.09;;;18.70;nan
70468;BME280;57934;51.532;7.684;2023-06-22T06:10:08;100529.94;;;18.75;nan
70468;BME280;57934;51.532;7.684;2023-06-22T06:12:34;100522.88;;;18.86;nan
70468;BME280;57934;51.532;7.684;2023-06-22T06:15:01;100531.09;;;18.68;nan
70468;BME280;57934;51.532;7.684;2023-06-22T06:17:27;100529.94;;;18.75;nan
70468;BME280;57934;51.532;7.684;2023-06-22T06:19:53;100529.63;;;18.89;nan
70468;BME280;57934;51.532;7.684;2023-06-22T06:22:19;100533.25;;;18.82;nan
70468;BME280;57934;51.532;7.684;2023-06-22T06:24:47;100527.59;;;18.96;nan
70468;BME280;57934;51.532;7.684;2023-06-22T06:27:13;100524.19;;;19.17;nan
70468;BME280;57934;51.532;7.684;2023-06-22T06:29:41;100518.19;;;19.27;nan
70468;BME280;57934;51.532;7.684;2023-06-22T06:32:07;100513.16;;;19.30;nan
70468;BME280;57934;51.532;7.684;2023-06-22T06:34:40;100512.66;;;19.34;nan
70468;BME280;57934;51.532;7.684;2023-06-22T06:37:06;100512.72;;;19.55;nan
70468;BME280;57934;51.532;7.684;2023-06-22T06:39:32;100506.09;;;19.80;nan
70468;BME280;57934;51.532;7.684;2023-06-22T06:41:58;100499.59;;;19.76;nan
70468;BME280;57934;51.532;7.684;2023-06-22T06:44:25;100498.78;;;19.75;nan
70468;BME280;57934;51.532;7.684;2023-06-22T06:46:51;100501.78;;;19.79;nan
70468;BME280;57934;51.532;7.684;2023-06-22T06:49:17;100502.88;;;19.61;nan
70468;BME280;57934;51.532;7.684;2023-06-22T06:51:43;100492.59;;;19.53;nan
70468;BME280;57934;51.532;7.684;2023-06-22T06:54:09;100492.75;;;19.63;nan
70468;BME280;57934;51.532;7.684;2023-06-22T06:56:35;100494.63;;;19.63;nan
70468;BME280;57934;51.532;7.684;2023-06-22T06:59:02;100499.50;;;19.88;nan
70468;BME280;57934;51.532;7.684;2023-06-22T07:01:28;100502.97;;;19.88;nan
70468;BME280;57934;51.532;7.684;2023-06-22T07:03:59;100500.09;;;20.17;nan
70468;BME280;57934;51.532;7.684;2023-06-22T07:06:27;100496.16;;;20.24;nan
70468;BME280;57934;51.532;7.684;2023-06-22T07:08:55;100493.84;;;20.33;nan
70468;BME280;57934;51.532;7.684;2023-06-22T07:11:21;100499.63;;;20.25;nan
70468;BME280;57934;51.532;7.684;2023-06-22T07:13:47;100484.47;;;20.36;nan
70468;BME280;57934;51.532;7.684;2023-06-22T07:16:13;100489.94;;;20.73;nan
70468;BME280;57934;51.532;7.684;2023-06-22T07:18:40;100492.34;;;21.07;nan
70468;BME280;57934;51.532;7.684;2023-06-22T07:21:06;100491.13;;;21.30;nan
70468;BME280;57934;51.532;7.684;2023-06-22T07:23:33;100486.91;;;20.96;nan
70468;BME280;57934;51.532;7.684;2023-06-22T07:25:59;100492.22;;;20.91;nan
70468;BME280;57934;51.532;7.684;2023-06-22T07:28:28;100495.19;;;20.95;nan
70468;BME280;57934;51.532;7.684;2023-06-22T07:30:57;100493.28;;;20.90;nan
70468;BME280;57934;51.532;7.684;2023-06-22T07:33:23;100488.88;;;21.11;nan
70468;BME280;57934;51.532;7.684;2023-06-22T07:35:49;100492.09;;;20.76;nan
70468;BME280;57934;51.532;7.684;2023-06-22T07:38:16;100493.94;;;21.03;nan
70468;BME280;57934;51.532;7.684;2023-06-22T07:40:42;100488.81;;;21.01;nan
70468;BME280;57934;51.532;7.684;2023-06-22T07:43:10;100474.16;;;21.14;nan
70468;BME280;57934;51.532;7.684;2023-06-22T07:45:37;100473.38;;;21.18;nan
70468;BME280;57934;51.532;7.684;2023-06-22T07:48:08;100474.47;;;21.23;nan
70468;BME280;57934;51.532;7.684;2023-06-22T07:50:34;100470.63;;;21.46;nan
70468;BME280;57934;51.532;7.684;2023-06-22T07:53:00;100466.91;;;21.57;nan
70468;BME280;57934;51.532;7.684;2023-06-22T07:55:26;100466.72;;;21.79;nan
70468;BME280;57934;51.532;7.684;2023-06-22T07:57:52;100467.00;;;21.77;nan
70468;BME280;57934;51.532;7.684;2023-06-22T08:00:18;100469.22;;;22.06;nan
70468;BME280;57934;51.532;7.684;2023-06-22T08:02:46;100467.09;;;22.13;nan
70468;BME280;57934;51.532;7.684;2023-06-22T08:05:13;100457.22;;;22.44;nan
70468;BME280;57934;51.532;7.684;2023-06-22T08:07:39;100457.50;;;22.48;nan
70468;BME280;57934;51.532;7.684;2023-06-22T08:10:10;100444.84;;;22.28;nan
70468;BME280;57934;51.532;7.684;2023-06-22T08:12:37;100448.63;;;22.62;nan
70468;BME280;57934;51.532;7.684;2023-06-22T08:15:04;100447.56;;;22.79;nan
70468;BME280;57934;51.532;7.684;2023-06-22T08:17:30;100443.25;;;22.62;nan
70468;BME280;57934;51.532;7.684;2023-06-22T08:19:57;100440.28;;;22.74;nan
70468;BME280;57934;51.532;7.684;2023-06-22T08:22:23;100430.16;;;23.51;nan
70468;BME280;57934;51.532;7.684;2023-06-22T08:24:49;100435.88;;;24.39;nan
70468;BME280;57934;51.532;7.684;2023-06-22T08:27:15;100435.97;;;24.63;nan
70468;BME280;57934;51.532;7.684;2023-06-22T08:29:42;100440.72;;;24.76;nan
70468;BME280;57934;51.532;7.684;2023-06-22T08:32:09;100447.34;;;25.18;nan
70468;BME280;57934;51.532;7.684;2023-06-22T08:34:36;100445.91;;;25.26;nan
70468;BME280;57934;51.532;7.684;2023-06-22T08:37:02;100446.91;;;25.35;nan
70468;BME280;57934;51.532;7.684;2023-06-22T08:39:32;100440.47;;;24.38;nan
70468;BME280;57934;51.532;7.684;2023-06-22T08:41:58;100438.16;;;24.21;nan
70468;BME280;57934;51.532;7.684;2023-06-22T08:44:25;100427.94;;;24.18;nan
70468;BME280;57934;51.532;7.684;2023-06-22T08:46:51;100425.41;;;24.32;nan
70468;BME280;57934;51.532;7.684;2023-06-22T08:49:17;100424.44;;;24.18;nan
70468;BME280;57934;51.532;7.684;2023-06-22T08:51:43;100421.31;;;24.74;nan
70468;BME280;57934;51.532;7.684;2023-06-22T08:54:11;100410.84;;;26.06;nan
70468;BME280;57934;51.532;7.684;2023-06-22T08:56:37;100412.38;;;27.24;nan
70468;BME280;57934;51.532;7.684;2023-06-22T08:59:03;100410.78;;;28.32;nan
70468;BME280;57934;51.532;7.684;2023-06-22T09:01:29;100404.34;;;29.53;nan
70468;BME280;57934;51.532;7.684;2023-06-22T09:03:55;100398.47;;;28.03;nan
70468;BME280;57934;51.532;7.684;2023-06-22T09:06:23;100396.06;;;28.02;nan
70468;BME280;57934;51.532;7.684;2023-06-22T09:08:50;100393.56;;;28.50;nan
70468;BME280;57934;51.532;7.684;2023-06-22T09:11:16;100385.91;;;29.41;nan
70468;BME280;57934;51.532;7.684;2023-06-22T09:13:42;100379.59;;;30.71;nan
70468;BME280;57934;51.532;7.684;2023-06-22T09:16:08;100370.44;;;30.84;nan
70468;BME280;57934;51.532;7.684;2023-06-22T09:18:34;100366.13;;;30.83;nan
70468;BME280;57934;51.532;7.684;2023-06-22T09:21:02;100368.28;;;31.28;nan
70468;BME280;57934;51.532;7.684;2023-06-22T09:23:28;100375.81;;;32.60;nan
70468;BME280;57934;51.532;7.684;2023-06-22T09:25:54;100369.91;;;33.56;nan
70468;BME280;57934;51.532;7.684;2023-06-22T09:28:20;100374.69;;;33.59;nan
70468;BME280;57934;51.532;7.684;2023-06-22T09:30:46;100383.09;;;32.56;nan
70468;BME280;57934;51.532;7.684;2023-06-22T09:33:12;100372.38;;;31.43;nan
70468;BME280;57934;51.532;7.684;2023-06-22T09:35:38;100366.94;;;30.83;nan
70468;BME280;57934;51.532;7.684;2023-06-22T09:38:04;100369.28;;;31.95;nan
70468;BME280;57934;51.532;7.684;2023-06-22T09:40:31;100366.41;;;32.24;nan
70468;BME280;57934;51.532;7.684;2023-06-22T09:43:01;100372.19;;;33.82;nan
70468;BME280;57934;51.532;7.684;2023-06-22T09:45:27;100358.91;;;32.79;nan
70468;BME280;57934;51.532;7.684;2023-06-22T09:47:53;100360.78;;;32.42;nan
70468;BME280;57934;51.532;7.684;2023-06-22T09:50:19;100352.81;;;33.59;nan
70468;BME280;57934;51.532;7.684;2023-06-22T09:52:45;100343.16;;;32.51;nan
70468;BME280;57934;51.532;7.684;2023-06-22T09:55:16;100346.00;;;33.16;nan
70468;BME280;57934;51.532;7.684;2023-06-22T09:57:43;100337.41;;;31.87;nan
70468;BME280;57934;51.532;7.684;2023-06-22T10:00:09;100317.94;;;30.28;nan
70468;BME280;57934;51.532;7.684;2023-06-22T10:02:37;100319.44;;;29.56;nan
70468;BME280;57934;51.532;7.684;2023-06-22T10:05:03;100323.72;;;28.73;nan
70468;BME280;57934;51.532;7.684;2023-06-22T10:07:30;100318.91;;;28.70;nan
70468;BME280;57934;51.532;7.684;2023-06-22T10:09:55;100320.19;;;28.33;nan
70468;BME280;57934;51.532;7.684;2023-06-22T10:12:23;100314.34;;;28.17;nan
70468;BME280;57934;51.532;7.684;2023-06-22T10:14:49;100320.13;;;27.79;nan
70468;BME280;57934;51.532;7.684;2023-06-22T10:17:15;100311.44;;;28.14;nan
70468;BME280;57934;51.532;7.684;2023-06-22T10:19:41;100313.81;;;27.84;nan
70468;BME280;57934;51.532;7.684;2023-06-22T10:22:07;100315.56;;;28.73;nan
70468;BME280;57934;51.532;7.684;2023-06-22T10:24:33;100312.78;;;28.56;nan
70468;BME280;57934;51.532;7.684;2023-06-22T10:26:59;100313.09;;;28.23;nan
70468;BME280;57934;51.532;7.684;2023-06-22T10:29:25;100315.44;;;28.78;nan
70468;BME280;57934;51.532;7.684;2023-06-22T10:31:51;100314.63;;;28.78;nan
70468;BME280;57934;51.532;7.684;2023-06-22T10:34:17;100304.81;;;28.51;nan
70468;BME280;57934;51.532;7.684;2023-06-22T10:36:43;100301.66;;;28.04;nan
70468;BME280;57934;51.532;7.684;2023-06-22T10:39:12;100298.28;;;27.98;nan
70468;BME280;57934;51.532;7.684;2023-06-22T10:41:38;100294.66;;;28.74;nan
70468;BME280;57934;51.532;7.684;2023-06-22T10:44:04;100291.13;;;28.02;nan
70468;BME280;57934;51.532;7.684;2023-06-22T10:46:30;100279.00;;;27.77;nan
70468;BME280;57934;51.532;7.684;2023-06-22T10:48:56;100276.00;;;27.65;nan
70468;BME280;57934;51.532;7.684;2023-06-22T10:51:24;100271.38;;;28.11;nan
70468;BME280;57934;51.532;7.684;2023-06-22T10:53:51;100269.88;;;27.96;nan
70468;BME280;57934;51.532;7.684;2023-06-22T10:56:18;100264.91;;;27.17;nan
70468;BME280;57934;51.532;7.684;2023-06-22T10:58:44;100269.25;;;27.04;nan
70468;BME280;57934;51.532;7.684;2023-06-22T11:01:11;100267.38;;;26.77;nan
70468;BME280;57934;51.532;7.684;2023-06-22T11:03:37;100268.16;;;26.91;nan
70468;BME280;57934;51.532;7.684;2023-06-22T11:06:03;100269.75;;;26.37;nan
70468;BME280;57934;51.532;7.684;2023-06-22T11:08:29;100260.03;;;26.22;nan
70468;BME280;57934;51.532;7.684;2023-06-22T11:10:55;100256.41;;;26.27;nan
70468;BME280;57934;51.532;7.684;2023-06-22T11:13:22;100251.66;;;26.51;nan
70468;BME280;57934;51.532;7.684;2023-06-22T11:15:48;100265.06;;;26.56;nan
70468;BME280;57934;51.532;7.684;2023-06-22T11:18:14;100265.38;;;25.94;nan
70468;BME280;57934;51.532;7.684;2023-06-22T11:20:46;100283.28;;;25.90;nan
70468;BME280;57934;51.532;7.684;2023-06-22T11:23:17;100306.31;;;26.02;nan
70468;BME280;57934;51.532;7.684;2023-06-22T11:25:43;100318.00;;;25.97;nan
70468;BME280;57934;51.532;7.684;2023-06-22T11:28:09;100330.72;;;25.97;nan
70468;BME280;57934;51.532;7.684;2023-06-22T11:30:35;100338.53;;;25.60;nan
70468;BME280;57934;51.532;7.684;2023-06-22T11:33:02;100344.06;;;25.07;nan
70468;BME280;57934;51.532;7.684;2023-06-22T11:35:28;100345.00;;;24.44;nan
70468;BME280;57934;51.532;7.684;2023-06-22T11:37:54;100348.88;;;23.94;nan
70468;BME280;57934;51.532;7.684;2023-06-22T11:40:22;100344.81;;;23.57;nan
70468;BME280;57934;51.532;7.684;2023-06-22T11:42:48;100336.31;;;23.34;nan
70468;BME280;57934;51.532;7.684;2023-06-22T11:45:14;100335.34;;;23.05;nan
70468;BME280;57934;51.532;7.684;2023-06-22T11:47:41;100314.69;;;22.90;nan
70468;BME280;57934;51.532;7.684;2023-06-22T11:50:08;100311.44;;;22.88;nan
70468;BME280;57934;51.532;7.684;2023-06-22T11:52:34;100309.03;;;22.81;nan
70468;BME280;57934;51.532;7.684;2023-06-22T11:55:01;100305.56;;;22.71;nan
70468;BME280;57934;51.532;7.684;2023-06-22T11:57:29;100293.19;;;22.80;nan
70468;BME280;57934;51.532;7.684;2023-06-22T11:59:55;100306.44;;;22.61;nan
70468;BME280;57934;51.532;7.684;2023-06-22T12:02:21;100301.84;;;22.61;nan
70468;BME280;57934;51.532;7.684;2023-06-22T12:04:47;100295.44;;;22.47;nan
70468;BME280;57934;51.532;7.684;2023-06-22T12:07:13;100298.91;;;22.43;nan
70468;BME280;57934;51.532;7.684;2023-06-22T12:09:39;100304.59;;;22.41;nan
70468;BME280;57934;51.532;7.684;2023-06-22T12:12:06;100300.28;;;22.40;nan
70468;BME280;57934;51.532;7.684;2023-06-22T12:14:32;100295.47;;;22.17;nan
70468;BME280;57934;51.532;7.684;2023-06-22T12:16:58;100286.59;;;22.21;nan
70468;BME280;57934;51.532;7.684;2023-06-22T12:19:24;100272.38;;;22.26;nan
70468;BME280;57934;51.532;7.684;2023-06-22T12:21:50;100280.16;;;22.17;nan
70468;BME280;57934;51.532;7.684;2023-06-22T12:24:17;100280.94;;;22.12;nan
70468;BME280;57934;51.532;7.684;2023-06-22T12:26:43;100292.50;;;22.03;nan
70468;BME280;57934;51.532;7.684;2023-06-22T12:29:09;100286.63;;;22.16;nan
70468;BME280;57934;51.532;7.684;2023-06-22T12:31:36;100293.88;;;22.15;nan
70468;BME280;57934;51.532;7.684;2023-06-22T12:34:04;100283.88;;;22.11;nan
70468;BME280;57934;51.532;7.684;2023-06-22T12:36:30;100291.97;;;22.06;nan
70468;BME280;57934;51.532;7.684;2023-06-22T12:38:56;100304.59;;;22.05;nan
70468;BME280;57934;51.532;7.684;2023-06-22T12:41:22;100317.19;;;22.00;nan
70468;BME280;57934;51.532;7.684;2023-06-22T12:43:48;100324.47;;;22.04;nan
70468;BME280;57934;51.532;7.684;2023-06-22T12:46:14;100340.56;;;21.99;nan
70468;BME280;57934;51.532;7.684;2023-06-22T12:48:40;100339.78;;;22.09;nan
70468;BME280;57934;51.532;7.684;2023-06-22T12:51:43;100315.31;;;21.95;nan
70468;BME280;57934;51.532;7.684;2023-06-22T12:54:14;100281.22;;;21.90;nan
70468;BME280;57934;51.532;7.684;2023-06-22T12:56:40;100244.94;;;21.73;nan
70468;BME280;57934;51.532;7.684;2023-06-22T12:59:09;100208.47;;;21.56;nan
70468;BME280;57934;51.532;7.684;2023-06-22T13:01:35;100175.97;;;21.58;nan
70468;BME280;57934;51.532;7.684;2023-06-22T13:04:03;100156.09;;;21.33;nan
70468;BME280;57934;51.532;7.684;2023-06-22T13:06:29;100157.94;;;21.07;nan
70468;BME280;57934;51.532;7.684;2023-06-22T13:08:55;100159.88;;;21.27;nan
70468;BME280;57934;51.532;7.684;2023-06-22T13:11:21;100159.88;;;21.42;nan
70468;BME280;57934;51.532;7.684;2023-06-22T13:13:48;100160.69;;;21.53;nan
70468;BME280;57934;51.532;7.684;2023-06-22T13:16:14;100154.53;;;21.63;nan
70468;BME280;57934;51.532;7.684;2023-06-22T13:18:40;100154.50;;;21.58;nan
70468;BME280;57934;51.532;7.684;2023-06-22T13:21:06;100163.63;;;21.77;nan